Millican Grove, TN

6:03 PM EST on December 04, 2016 (GMT -0500)
South Douglas Lake | | Change Station
Active Advisory: High Wind Watch

Elev 1050 ft 35.92 °N, 83.49 °W | Updated 481 days ago

Overcast
Overcast
86.4 °F
Feels Like 86.4 °F
N
0.0
Wind Variable Wind from South
Gusts 0.0 mph

Today
High -- | Low -- °F
--% Chance of Precip.
Yesterday
High -- | Low -- °F
Precip. -- in
Pressure 29.96 in
Visibility 2.0 miles
Clouds Scattered Clouds 500 ft
Mostly Cloudy 1300 ft
Overcast 4100 ft
Dew Point 65.6 °F
Humidity 50%
Rainfall in
Snow Depth Not available.
7:28 AM 5:19 PM
Waxing Crescent, 26% visible
METAR KTYS 042253Z 34004KT 2SM -RA BR SCT005 BKN013 OVC041 07/06 A2996 RMK AO2 SLP146 P0006 T00670056 $
Pressure 29.96 in
Visibility 2.0 miles
Clouds Scattered Clouds 500 ft
Mostly Cloudy 1300 ft
Overcast 4100 ft
Dew Point 65.6 °F
Humidity 50%
Rainfall in
Snow Depth Not available.
7:28 AM 5:19 PM
Waxing Crescent, 26% visible
METAR KTYS 042253Z 34004KT 2SM -RA BR SCT005 BKN013 OVC041 07/06 A2996 RMK AO2 SLP146 P0006 T00670056 $

10-Day Weather Forecast

Almanac

Astronomy

Dec. 04, 2016 Rise Set
Actual Time
Civil Twilight
Nautical Twilight
Astronomical Twilight
Moon
Length of Visible Light
Length of Day
Tomorrow will be .
, % of the Moon is Illuminated

Today's Extremes

State Highs State Lows

Community

WunderPhotos

Upload Photos

1,955,695 photos uploaded!

WunderBlog® & News

Nearby

Air Quality

  Air Quality AQ Index Pollutant
Not available.

Snow Depth

Station Depth Elevation

Earthquake Activity

City Distance Mag. Time & Date
Minimum magnitude displayed is 2.5.

Coastal Water Temperatures

Place Temperature

Stations

Nearby Weather Stations

Station Location Temp. Windchill Dew Point Humidity Wind Precip. Elev Updated Type
                   

Watches & Warnings

High Wind Watch
Issued: 2:06 PM EST Dec. 4, 2016 – National Weather Service

... High wind watch in effect from Monday evening through Tuesday
afternoon...

The National Weather Service in Morristown has issued a high wind
watch... which is in effect from Monday evening through Tuesday
afternoon.

* Event... strong southeasterly mountain wave winds of 25 to 40
mph... with gusts up to 60 mph are possible Monday night into
Tuesday... along the immediate foothills of the east Tennessee
mountains.

* Timing... late Monday evening through Tuesday afternoon.

* Impacts... these winds could contribute to fire growth and spread
in areas that still have ongoing wildfires. Additionally... they
may down trees or tree limbs... as well as power lines. Loose outdoor
objects should be secured. Motorists should be extra cautious to
cross winds especially when driving in the higher elevations.

Precautionary/preparedness actions...

A high wind watch means there is the potential for a hazardous
high wind event. Sustained winds of at least 40 mph... and/or
gusts of 58 mph or stronger may occur. Continue to monitor the
latest forecasts.